createdAt,value
2018-02-19T00:01:27.959Z,18.70
2018-02-19T00:03:55.581Z,19.10
2018-02-19T00:06:23.616Z,15.17
2018-02-19T00:08:51.144Z,20.67
2018-02-19T00:11:19.528Z,19.10
2018-02-19T00:13:49.948Z,20.07
2018-02-19T00:16:17.497Z,20.10
2018-02-19T00:18:45.445Z,16.33
2018-02-19T00:21:13.240Z,20.63
2018-02-19T00:23:40.830Z,23.30
2018-02-19T00:26:09.131Z,19.90
2018-02-19T00:28:36.885Z,21.57
2018-02-19T00:31:04.434Z,22.07
2018-02-19T00:33:32.002Z,18.80
2018-02-19T00:35:59.548Z,18.83
2018-02-19T00:38:27.085Z,18.60
2018-02-19T00:40:55.396Z,19.63
2018-02-19T00:43:22.921Z,19.00
2018-02-19T00:45:51.218Z,16.23
2018-02-19T00:48:18.793Z,20.33
2018-02-19T00:50:46.317Z,17.03
2018-02-19T00:53:14.634Z,17.53
2018-02-19T00:55:42.161Z,16.60
2018-02-19T00:58:09.726Z,20.13
2018-02-19T01:00:37.249Z,17.73
2018-02-19T01:03:04.805Z,21.10
2018-02-19T01:05:32.400Z,20.87
2018-02-19T01:07:59.954Z,21.73
2018-02-19T01:10:27.485Z,21.37
2018-02-19T01:12:55.050Z,15.60
2018-02-19T01:15:23.348Z,16.03
2018-02-19T01:17:50.906Z,21.57
2018-02-19T01:20:18.438Z,16.60
2018-02-19T01:22:46.761Z,15.67
2018-02-19T01:25:14.292Z,19.00
2018-02-19T01:27:41.847Z,21.10
2018-02-19T01:30:10.158Z,28.60
2018-02-19T01:32:37.712Z,19.17
2018-02-19T01:35:05.234Z,16.93
2018-02-19T01:37:33.562Z,20.77
2018-02-19T01:40:01.089Z,26.70
2018-02-19T01:42:29.225Z,14.80
2018-02-19T01:44:56.761Z,17.77
2018-02-19T01:47:24.547Z,23.43
2018-02-19T01:50:03.730Z,19.93
2018-02-19T01:52:31.273Z,16.43
2018-02-19T01:54:58.799Z,22.03
2018-02-19T01:57:27.273Z,18.27
2018-02-19T01:59:54.794Z,14.50
2018-02-19T02:02:22.345Z,14.80
2018-02-19T02:04:49.873Z,16.70
2018-02-19T02:07:17.429Z,25.93
2018-02-19T02:09:44.966Z,19.07
2018-02-19T02:12:12.511Z,17.57
2018-02-19T02:14:40.038Z,18.53
2018-02-19T02:17:07.590Z,19.40
2018-02-19T02:19:35.120Z,18.13
2018-02-19T02:22:02.673Z,18.17
2018-02-19T02:24:30.961Z,19.00
2018-02-19T02:26:58.516Z,21.13
2018-02-19T02:29:26.045Z,23.43
2018-02-19T02:31:53.594Z,19.43
2018-02-19T02:34:21.117Z,17.07
2018-02-19T02:36:48.665Z,16.43
2018-02-19T02:39:16.203Z,14.90
2018-02-19T02:41:44.515Z,18.07
2018-02-19T02:44:12.043Z,14.07
2018-02-19T02:46:39.609Z,18.67
2018-02-19T02:49:07.151Z,17.73
2018-02-19T02:51:35.451Z,21.00
2018-02-19T02:54:03.016Z,16.43
2018-02-19T02:56:30.544Z,17.93
2018-02-19T02:58:58.098Z,16.23
2018-02-19T03:01:25.624Z,20.03
2018-02-19T03:03:53.170Z,24.93
2018-02-19T03:06:20.711Z,17.03
2018-02-19T03:08:48.269Z,16.20
2018-02-19T03:11:15.811Z,16.70
2018-02-19T03:13:43.417Z,22.03
2018-02-19T03:16:10.959Z,15.90
2018-02-19T03:18:38.521Z,16.40
2018-02-19T03:21:06.055Z,14.77
2018-02-19T03:23:33.606Z,15.93
2018-02-19T03:26:01.141Z,17.60
2018-02-19T03:28:29.458Z,18.60
2018-02-19T03:30:56.986Z,12.97
2018-02-19T03:33:24.537Z,12.90
2018-02-19T03:35:52.828Z,15.30
2018-02-19T03:38:20.378Z,13.80
2018-02-19T03:40:48.670Z,16.83
2018-02-19T03:43:16.234Z,17.23
2018-02-19T03:45:43.760Z,16.33
2018-02-19T03:48:11.330Z,14.33
2018-02-19T03:50:39.621Z,15.47
2018-02-19T03:53:07.141Z,17.40
2018-02-19T03:55:34.701Z,15.70
2018-02-19T03:58:03.005Z,17.80
2018-02-19T04:00:30.557Z,14.97
2018-02-19T04:02:58.845Z,14.67
2018-02-19T04:05:26.394Z,14.53
2018-02-19T04:07:53.933Z,18.73
2018-02-19T04:10:22.245Z,13.93
2018-02-19T04:12:49.761Z,15.37
2018-02-19T04:15:17.306Z,14.30
2018-02-19T04:17:45.118Z,14.20
2018-02-19T04:20:12.650Z,14.53
2018-02-19T04:22:40.957Z,13.07
2018-02-19T04:25:08.517Z,14.53
2018-02-19T04:27:36.042Z,18.07
2018-02-19T04:30:06.306Z,15.70
2018-02-19T04:32:33.837Z,15.40
2018-02-19T04:35:02.125Z,16.70
2018-02-19T04:37:29.682Z,15.13
2018-02-19T04:39:57.221Z,16.70
2018-02-19T04:42:25.533Z,20.00
2018-02-19T04:45:06.774Z,21.30
2018-02-19T04:47:34.331Z,15.33
2018-02-19T04:50:02.641Z,17.27
2018-02-19T04:52:30.194Z,13.97
2018-02-19T04:54:57.726Z,16.00
2018-02-19T04:57:25.288Z,17.57
2018-02-19T04:59:53.590Z,14.53
2018-02-19T05:02:21.142Z,16.17
2018-02-19T05:04:48.670Z,14.40
2018-02-19T05:07:16.233Z,15.13
2018-02-19T05:09:44.539Z,17.43
2018-02-19T05:12:12.070Z,16.07
2018-02-19T05:14:39.643Z,13.07
2018-02-19T05:17:07.216Z,15.70
2018-02-19T05:19:34.782Z,21.27
2018-02-19T05:22:02.349Z,17.07
2018-02-19T05:24:29.907Z,18.60
2018-02-19T05:26:57.453Z,19.13
2018-02-19T05:29:25.005Z,24.23
2018-02-19T05:31:52.526Z,16.43
2018-02-19T05:34:20.074Z,15.93
2018-02-19T05:36:47.602Z,17.47
2018-02-19T05:39:15.176Z,18.17
2018-02-19T05:41:42.701Z,13.70
2018-02-19T05:44:10.261Z,17.93
2018-02-19T05:46:37.783Z,15.90
2018-02-19T05:49:06.123Z,16.50
2018-02-19T05:51:33.667Z,12.63
2018-02-19T05:54:01.226Z,15.07
2018-02-19T05:56:28.761Z,18.23
2018-02-19T05:58:56.298Z,15.03
2018-02-19T06:01:24.658Z,31.03
2018-02-19T06:03:52.160Z,29.63
2018-02-19T06:06:19.741Z,27.30
2018-02-19T06:08:47.270Z,19.37
2018-02-19T06:11:14.851Z,21.97
2018-02-19T06:13:43.050Z,17.37
2018-02-19T06:16:10.598Z,19.53
2018-02-19T06:18:38.139Z,20.43
2018-02-19T06:21:05.730Z,22.63
2018-02-19T06:23:33.254Z,18.73
2018-02-19T06:26:00.809Z,22.97
2018-02-19T06:28:28.338Z,19.10
2018-02-19T06:30:55.889Z,16.23
2018-02-19T06:33:23.418Z,11.27
2018-02-19T06:35:50.967Z,20.87
2018-02-19T06:38:18.510Z,19.73
2018-02-19T06:40:46.063Z,24.50
2018-02-19T06:43:13.599Z,20.63
2018-02-19T06:45:41.913Z,18.30
2018-02-19T06:48:09.432Z,17.90
2018-02-19T06:50:36.994Z,16.43
2018-02-19T06:53:04.527Z,19.17
2018-02-19T06:55:32.067Z,29.73
2018-02-19T06:57:59.617Z,26.77
2018-02-19T07:00:27.201Z,28.13
2018-02-19T07:02:54.756Z,20.67
2018-02-19T07:05:22.295Z,24.87
2018-02-19T07:07:49.863Z,27.30
2018-02-19T07:10:17.416Z,21.87
2018-02-19T07:12:44.964Z,25.57
2018-02-19T07:15:12.515Z,39.07
2018-02-19T07:17:40.068Z,28.63
2018-02-19T07:20:08.605Z,26.83
2018-02-19T07:22:36.927Z,53.67
2018-02-19T07:25:04.517Z,40.13
2018-02-19T07:27:32.052Z,29.80
2018-02-19T07:29:59.586Z,31.80
2018-02-19T07:32:27.190Z,32.03
2018-02-19T07:34:54.732Z,26.97
2018-02-19T07:37:22.271Z,29.03
2018-02-19T07:39:49.822Z,24.73
2018-02-19T07:42:17.363Z,33.10
2018-02-19T07:44:44.944Z,25.00
2018-02-19T07:47:12.473Z,19.83
2018-02-19T07:49:40.022Z,19.10
2018-02-19T07:52:08.312Z,24.07
2018-02-19T07:54:35.852Z,19.10
2018-02-19T07:57:04.165Z,24.07
2018-02-19T07:59:31.720Z,22.07
2018-02-19T08:01:59.293Z,18.87
2018-02-19T08:04:26.853Z,14.97
2018-02-19T08:06:54.381Z,18.97
2018-02-19T08:09:22.693Z,19.43
2018-02-19T08:11:50.219Z,18.70
2018-02-19T08:14:17.768Z,17.00
2018-02-19T08:16:45.312Z,16.40
2018-02-19T08:19:12.878Z,17.93
2018-02-19T08:21:41.218Z,15.77
2018-02-19T08:24:08.780Z,19.40
2018-02-19T08:26:36.306Z,13.47
2018-02-19T08:29:03.888Z,16.13
2018-02-19T08:31:31.413Z,18.00
2018-02-19T08:33:58.941Z,20.07
2018-02-19T08:36:26.501Z,17.70
2018-02-19T08:38:54.086Z,14.00
2018-02-19T08:41:21.613Z,18.97
2018-02-19T08:43:49.143Z,15.37
2018-02-19T08:46:16.699Z,17.90
2018-02-19T08:48:44.233Z,17.60
2018-02-19T08:51:11.797Z,13.77
2018-02-19T08:53:39.341Z,17.80
2018-02-19T08:56:06.891Z,16.83
2018-02-19T08:58:34.433Z,19.17
2018-02-19T09:01:02.764Z,16.17
2018-02-19T09:03:30.294Z,17.40
2018-02-19T09:05:57.869Z,22.63
2018-02-19T09:08:25.392Z,17.07
2018-02-19T09:10:53.717Z,21.97
2018-02-19T09:13:21.240Z,18.63
2018-02-19T09:15:48.797Z,18.13
2018-02-19T09:18:17.250Z,21.30
2018-02-19T09:20:45.586Z,21.03
2018-02-19T09:23:13.110Z,21.27
2018-02-19T09:25:40.642Z,23.90
2018-02-19T09:28:08.963Z,18.20
2018-02-19T09:30:36.510Z,16.87
2018-02-19T09:33:04.066Z,20.33
2018-02-19T09:35:31.600Z,15.63
2018-02-19T09:37:59.920Z,16.93
2018-02-19T09:40:27.437Z,19.83
2018-02-19T09:42:55.006Z,18.77
2018-02-19T09:45:22.533Z,16.97
2018-02-19T09:47:50.113Z,17.47
2018-02-19T09:50:17.631Z,19.60
2018-02-19T09:52:45.188Z,20.40
2018-02-19T09:55:12.729Z,16.70
2018-02-19T09:57:40.293Z,20.97
2018-02-19T10:00:07.810Z,16.93
2018-02-19T10:02:35.355Z,18.67
2018-02-19T10:05:03.636Z,17.20
2018-02-19T10:07:31.958Z,17.03
2018-02-19T10:09:59.487Z,19.70
2018-02-19T10:12:27.067Z,23.17
2018-02-19T10:14:54.608Z,20.30
2018-02-19T10:17:22.170Z,16.37
2018-02-19T10:19:49.693Z,16.63
2018-02-19T10:22:17.232Z,16.67
2018-02-19T10:24:44.778Z,19.80
2018-02-19T10:27:12.303Z,19.30
2018-02-19T10:29:39.884Z,16.00
2018-02-19T10:32:07.413Z,16.67
2018-02-19T10:34:34.973Z,16.93
2018-02-19T10:37:02.501Z,19.73
2018-02-19T10:39:30.823Z,16.30
2018-02-19T10:41:58.442Z,17.23
2018-02-19T10:44:26.029Z,19.00
2018-02-19T10:46:53.556Z,18.80
2018-02-19T10:49:21.884Z,15.37
2018-02-19T10:51:49.414Z,19.83
2018-02-19T10:54:16.973Z,17.90
2018-02-19T10:56:44.511Z,18.97
2018-02-19T10:59:12.846Z,21.00
2018-02-19T11:01:40.388Z,18.17
2018-02-19T11:04:07.945Z,21.97
2018-02-19T11:06:35.481Z,19.70
2018-02-19T11:09:03.797Z,21.43
2018-02-19T11:11:31.332Z,21.43
2018-02-19T11:13:58.865Z,20.27
2018-02-19T11:16:27.191Z,19.37
2018-02-19T11:18:54.725Z,18.87
2018-02-19T11:21:23.378Z,22.33
2018-02-19T11:23:50.929Z,22.43
2018-02-19T11:26:18.482Z,19.20
2018-02-19T11:28:46.019Z,25.37
2018-02-19T11:31:13.581Z,15.70
2018-02-19T11:33:41.115Z,19.70
2018-02-19T11:36:08.679Z,23.50
2018-02-19T11:38:36.206Z,25.07
2018-02-19T11:41:03.762Z,21.63
2018-02-19T11:43:31.434Z,20.83
2018-02-19T11:45:59.287Z,22.60
2018-02-19T11:48:27.024Z,21.63
2018-02-19T11:50:54.650Z,19.27
2018-02-19T11:53:22.202Z,22.97
2018-02-19T11:55:49.757Z,20.03
2018-02-19T11:58:17.319Z,20.17
2018-02-19T12:00:44.897Z,21.83
2018-02-19T12:03:12.468Z,19.67
2018-02-19T12:05:40.841Z,19.13
2018-02-19T12:08:08.391Z,17.40
2018-02-19T12:10:35.934Z,18.60
2018-02-19T12:13:03.501Z,23.43
2018-02-19T12:15:31.035Z,17.53
2018-02-19T12:17:58.610Z,20.87
2018-02-19T12:20:26.152Z,19.73
2018-02-19T12:22:53.754Z,20.93
2018-02-19T12:25:21.301Z,22.53
2018-02-19T12:27:48.912Z,17.80
2018-02-19T12:30:16.472Z,20.87
2018-02-19T12:32:44.054Z,20.53
2018-02-19T12:35:11.629Z,18.53
2018-02-19T12:37:39.208Z,20.57
2018-02-19T12:40:06.757Z,16.67
2018-02-19T12:42:34.335Z,22.63
2018-02-19T12:45:01.934Z,19.30
2018-02-19T12:47:29.831Z,15.93
2018-02-19T12:49:57.388Z,17.20
2018-02-19T12:52:25.004Z,17.67
2018-02-19T12:54:52.600Z,15.40
2018-02-19T12:57:20.166Z,18.73
2018-02-19T12:59:48.033Z,15.80
2018-02-19T13:02:15.617Z,19.40
2018-02-19T13:04:43.255Z,15.73
2018-02-19T13:07:10.839Z,15.93
2018-02-19T13:09:38.510Z,17.40
2018-02-19T13:12:06.444Z,16.63
2018-02-19T13:14:34.046Z,17.17
2018-02-19T13:17:02.379Z,20.13
2018-02-19T13:19:29.980Z,16.90
2018-02-19T13:21:57.593Z,15.80
2018-02-19T13:24:25.169Z,20.23
2018-02-19T13:26:52.746Z,16.60
2018-02-19T13:29:20.342Z,16.63
2018-02-19T13:31:47.911Z,20.33
2018-02-19T13:34:15.526Z,17.67
2018-02-19T13:36:43.259Z,17.50
2018-02-19T13:39:10.879Z,17.43
2018-02-19T13:41:38.505Z,21.10
2018-02-19T13:44:06.085Z,15.97
2018-02-19T13:46:33.684Z,15.67
2018-02-19T13:49:01.286Z,19.53
2018-02-19T13:51:28.958Z,16.47
2018-02-19T13:53:56.518Z,20.17
2018-02-19T13:56:24.908Z,18.47
2018-02-19T13:58:52.462Z,20.03
2018-02-19T14:01:20.096Z,17.87
2018-02-19T14:03:47.649Z,19.70
2018-02-19T14:06:15.259Z,21.17
2018-02-19T14:08:42.919Z,18.13
2018-02-19T14:11:10.542Z,19.03
2018-02-19T14:13:38.158Z,17.03
2018-02-19T14:16:07.019Z,15.40
2018-02-19T14:18:34.582Z,22.13
2018-02-19T14:21:02.155Z,20.60
2018-02-19T14:23:29.842Z,17.93
2018-02-19T14:25:57.385Z,19.70
2018-02-19T14:28:24.937Z,21.80
2018-02-19T14:30:52.461Z,18.13
2018-02-19T14:33:20.794Z,19.50
2018-02-19T14:35:48.331Z,17.27
2018-02-19T14:38:15.897Z,19.87
2018-02-19T14:40:43.433Z,18.07
2018-02-19T14:43:11.019Z,19.53
2018-02-19T14:45:38.549Z,18.50
2018-02-19T14:48:06.107Z,19.73
2018-02-19T14:50:33.645Z,17.67
2018-02-19T14:53:01.978Z,20.63
2018-02-19T14:55:29.509Z,17.97
2018-02-19T14:57:57.053Z,18.33
2018-02-19T15:00:24.581Z,17.57
2018-02-19T15:02:52.129Z,21.20
2018-02-19T15:05:19.763Z,25.20
2018-02-19T15:07:47.552Z,21.97
2018-02-19T15:10:15.292Z,21.13
2018-02-19T15:12:42.973Z,19.10
2018-02-19T15:15:10.497Z,19.23
2018-02-19T15:17:38.053Z,24.13
2018-02-19T15:20:05.778Z,18.77
2018-02-19T15:22:34.926Z,22.83
2018-02-19T15:25:02.696Z,21.70
2018-02-19T15:27:31.267Z,23.10
2018-02-19T15:29:58.831Z,21.77
2018-02-19T15:32:28.493Z,20.53
2018-02-19T15:34:56.049Z,20.43
2018-02-19T15:37:24.346Z,21.73
2018-02-19T15:39:51.897Z,23.40
2018-02-19T15:42:19.438Z,20.90
2018-02-19T15:44:47.763Z,21.50
2018-02-19T15:47:15.298Z,23.50
2018-02-19T15:49:42.862Z,21.23
2018-02-19T15:52:10.404Z,22.70
2018-02-19T15:54:38.727Z,23.93
2018-02-19T15:57:06.261Z,18.40
2018-02-19T15:59:33.815Z,23.63
2018-02-19T16:02:01.354Z,23.10
2018-02-19T16:04:29.684Z,23.23
2018-02-19T16:06:58.163Z,21.17
2018-02-19T16:09:25.687Z,17.37
2018-02-19T16:11:53.254Z,24.80
2018-02-19T16:14:20.791Z,22.93
2018-02-19T16:16:49.115Z,28.10
2018-02-19T16:19:16.652Z,26.70
2018-02-19T16:21:44.209Z,23.40
2018-02-19T16:24:11.741Z,30.23
2018-02-19T16:26:39.305Z,23.63
2018-02-19T16:29:06.852Z,22.07
2018-02-19T16:31:35.160Z,24.93
2018-02-19T16:34:02.687Z,25.50
2018-02-19T16:36:30.241Z,25.40
2018-02-19T16:38:58.574Z,23.30
2018-02-19T16:41:26.152Z,29.43
2018-02-19T16:43:53.689Z,26.97
2018-02-19T16:46:21.354Z,25.70
2018-02-19T16:48:48.886Z,30.47
2018-02-19T16:51:16.442Z,28.07
2018-02-19T16:53:43.998Z,35.33
2018-02-19T16:56:11.559Z,24.17
2018-02-19T16:58:39.162Z,30.60
2018-02-19T17:01:06.660Z,24.70
2018-02-19T17:03:34.238Z,31.13
2018-02-19T17:06:01.766Z,28.70
2018-02-19T17:08:29.327Z,29.97
2018-02-19T17:10:58.576Z,29.27
2018-02-19T17:13:26.142Z,30.80
2018-02-19T17:15:53.685Z,26.70
2018-02-19T17:18:21.262Z,28.70
2018-02-19T17:20:48.801Z,25.87
2018-02-19T17:23:16.350Z,27.27
2018-02-19T17:25:43.882Z,32.47
2018-02-19T17:28:11.448Z,29.00
2018-02-19T17:30:39.002Z,32.10
2018-02-19T17:33:06.561Z,32.60
2018-02-19T17:35:35.108Z,27.20
2018-02-19T17:38:02.703Z,31.47
2018-02-19T17:40:30.261Z,28.67
2018-02-19T17:42:57.821Z,32.00
2018-02-19T17:45:25.356Z,29.20
2018-02-19T17:47:52.930Z,28.47
2018-02-19T17:50:21.234Z,32.07
2018-02-19T17:52:48.789Z,32.03
2018-02-19T17:55:16.326Z,29.50
2018-02-19T17:57:44.629Z,34.13
2018-02-19T18:00:12.198Z,32.33
2018-02-19T18:02:40.319Z,28.20
2018-02-19T18:05:08.644Z,32.97
2018-02-19T18:07:36.190Z,34.13
2018-02-19T18:10:03.771Z,35.03
2018-02-19T18:12:31.331Z,35.67
2018-02-19T18:14:58.913Z,37.07
2018-02-19T18:17:26.469Z,33.30
2018-02-19T18:19:54.043Z,27.37
2018-02-19T18:22:22.344Z,31.70
2018-02-19T18:24:49.970Z,26.80
2018-02-19T18:27:18.314Z,29.17
2018-02-19T18:29:45.911Z,31.00
2018-02-19T18:32:14.343Z,28.23
2018-02-19T18:34:42.027Z,33.10
2018-02-19T18:37:09.565Z,29.60
2018-02-19T18:39:37.109Z,37.27
2018-02-19T18:42:04.818Z,32.27
2018-02-19T18:44:33.529Z,34.97
2018-02-19T18:47:01.085Z,34.40
2018-02-19T18:49:31.314Z,39.43
2018-02-19T18:52:01.381Z,39.47
2018-02-19T18:54:29.111Z,30.97
2018-02-19T18:59:37.326Z,33.83
2018-02-19T19:02:08.043Z,33.37
2018-02-19T19:04:37.370Z,40.53
2018-02-19T19:07:07.217Z,41.23
2018-02-19T19:09:46.485Z,32.70
2018-02-19T19:12:14.042Z,58.93
2018-02-19T19:14:43.947Z,90.57
2018-02-19T19:17:12.549Z,39.63
2018-02-19T19:19:42.115Z,47.03
2018-02-19T19:22:09.694Z,32.10
2018-02-19T19:24:37.261Z,34.60
2018-02-19T19:27:04.857Z,42.90
2018-02-19T19:29:32.389Z,40.47
2018-02-19T19:32:01.287Z,45.90
2018-02-19T19:34:29.593Z,46.10
2018-02-19T19:36:57.159Z,47.67
2018-02-19T19:39:24.693Z,63.90
2018-02-19T19:41:52.225Z,57.80
2018-02-19T19:44:20.543Z,45.17
2018-02-19T19:46:48.078Z,37.20
2018-02-19T19:49:15.663Z,38.40
2018-02-19T19:51:43.226Z,44.33
2018-02-19T19:54:10.799Z,37.50
2018-02-19T19:56:38.329Z,34.83
2018-02-19T19:59:06.353Z,39.57
2018-02-19T20:01:33.877Z,36.40
2018-02-19T20:04:01.443Z,37.73
2018-02-19T20:06:28.978Z,41.90
2018-02-19T20:08:56.529Z,33.90
2018-02-19T20:11:24.070Z,45.40
2018-02-19T20:13:52.399Z,39.57
2018-02-19T20:16:19.941Z,41.97
2018-02-19T20:18:47.490Z,39.87
2018-02-19T20:21:15.014Z,40.47
2018-02-19T20:23:43.334Z,43.83
2018-02-19T20:26:10.870Z,42.20
2018-02-19T20:28:40.723Z,39.77
2018-02-19T20:31:08.266Z,41.57
2018-02-19T20:33:35.808Z,54.30
2018-02-19T20:36:03.365Z,50.83
2018-02-19T20:38:30.901Z,55.57
2018-02-19T20:40:59.222Z,41.20
2018-02-19T20:43:26.783Z,41.57
2018-02-19T20:45:54.351Z,41.87
2018-02-19T20:48:21.890Z,39.63
2018-02-19T20:50:49.449Z,43.97
2018-02-19T20:53:16.987Z,49.17
2018-02-19T20:55:44.561Z,50.67
2018-02-19T20:58:12.148Z,45.87
2018-02-19T21:00:39.728Z,47.73
2018-02-19T21:03:08.042Z,47.30
2018-02-19T21:05:35.593Z,42.10
2018-02-19T21:08:03.139Z,44.17
2018-02-19T21:10:30.699Z,42.00
2018-02-19T21:12:58.239Z,39.00
2018-02-19T21:15:26.611Z,38.10
2018-02-19T21:17:54.153Z,38.53
2018-02-19T21:20:23.673Z,35.53
2018-02-19T21:22:51.226Z,41.53
2018-02-19T21:25:18.805Z,38.70
2018-02-19T21:27:47.138Z,34.97
2018-02-19T21:30:15.726Z,41.83
2018-02-19T21:32:43.286Z,39.67
2018-02-19T21:35:10.814Z,40.57
2018-02-19T21:37:38.369Z,41.07
2018-02-19T21:40:05.912Z,36.33
2018-02-19T21:42:34.245Z,36.40
2018-02-19T21:45:01.773Z,37.33
2018-02-19T21:47:29.339Z,43.53
2018-02-19T21:49:56.872Z,38.63
2018-02-19T21:52:24.419Z,39.90
2018-02-19T21:54:52.713Z,41.23
2018-02-19T21:57:20.268Z,40.37
2018-02-19T21:59:47.845Z,40.33
2018-02-19T22:02:15.403Z,42.30
2018-02-19T22:04:42.953Z,41.47
2018-02-19T22:07:10.517Z,44.40
2018-02-19T22:09:38.060Z,42.70
2018-02-19T22:12:05.641Z,41.07
2018-02-19T22:14:33.173Z,40.10
2018-02-19T22:17:00.703Z,45.23
2018-02-19T22:19:28.254Z,47.37
2018-02-19T22:21:55.792Z,42.30
2018-02-19T22:24:23.357Z,41.97
2018-02-19T22:26:50.890Z,52.13
2018-02-19T22:29:18.441Z,46.63
2018-02-19T22:31:45.973Z,44.37
2018-02-19T22:34:14.298Z,37.40
2018-02-19T22:36:41.828Z,44.83
2018-02-19T22:39:09.378Z,43.83
2018-02-19T22:41:36.907Z,48.10
2018-02-19T22:44:04.461Z,47.73
2018-02-19T22:46:32.822Z,44.27
2018-02-19T22:49:00.353Z,48.30
2018-02-19T22:51:27.881Z,44.47
2018-02-19T22:53:56.217Z,49.30
2018-02-19T22:56:23.745Z,48.30
2018-02-19T22:58:51.293Z,48.73
2018-02-19T23:01:18.834Z,48.43
2018-02-19T23:03:46.401Z,48.23
2018-02-19T23:06:13.953Z,48.97
2018-02-19T23:08:42.255Z,47.77
2018-02-19T23:11:09.814Z,49.37
2018-02-19T23:13:37.358Z,49.17
2018-02-19T23:16:04.914Z,50.63
2018-02-19T23:18:32.459Z,49.07
2018-02-19T23:21:00.033Z,50.37
2018-02-19T23:23:27.579Z,51.53
2018-02-19T23:25:55.895Z,46.63
2018-02-19T23:28:23.435Z,54.50
2018-02-19T23:30:51.003Z,56.00
2018-02-19T23:33:18.545Z,49.43
2018-02-19T23:35:46.103Z,47.87
2018-02-19T23:38:13.637Z,45.60
2018-02-19T23:40:41.953Z,48.53
2018-02-19T23:43:09.485Z,48.93
2018-02-19T23:45:37.063Z,50.03
2018-02-19T23:48:04.602Z,53.67
2018-02-19T23:50:32.173Z,51.90
2018-02-19T23:52:59.727Z,50.27
2018-02-19T23:55:27.334Z,48.33
2018-02-19T23:57:54.880Z,48.23
